Aérodrome :
LOGIN :

S'inscrire | Disclaimer

   EN    FR    IT 

 










Légende :    VFR   VFR Marginal   IFR   IFR Intensif   IFR Très Intensif
Visi : 
Plafond : 
>= 8 km
>= 3000ft
5 à 8 km
1000 à 3000 ft
1500m à 5 km
500 à 1000 ft
800 à 1500m
200 à 500 ft
< 800m
< 200 ft
Symboles :   Orages  Brouillard  Fortes neiges  Fortes précipitations  Vent > 20 kt
SIGMETs :   Divers  Orages  Givrage  Turbulence  Onde Orograph.  Cendres Volcan.






- Altitude de l'aérodrome : 1300 ft
- Code IATA : LIG


LFBL - Limoges

DERNIER METAR :
  • 210200Z AUTO 25006KT 220V280 3300 RA BR OVC004 09/09 Q1014 TEMPO 2000 BR

METARs EXPIRÉS :
  • 210130Z AUTO 24006KT 4900 DZ BR BKN003 OVC008 09/09 Q1014 TEMPO 2000 BR
  • 210100Z AUTO 24006KT 210V270 9999 OVC003 09/09 Q1013 TEMPO 2000 -RADZ
  • 210030Z AUTO 24005KT 210V270 8000 -RA OVC003 09/09 Q1013 TEMPO 2000 -RADZ
  • 210000Z AUTO 25007KT 210V280 9999 OVC002 09/09 Q1012 TEMPO 2000 -RADZ
  • 202330Z AUTO 25006KT 210V290 9999 BKN004 OVC008 09/09 Q1012 TEMPO 2000 -RADZ

TAF TAF LFBL
Valide du 21 à 00h jusqu'au 22 à 00h UTC


202300Z 2100/2124 24008KT 9999 BKN012
TEMPO 2100/2106 BKN007
PROB40
TEMPO 2100/2104 2000 -RADZ BKN003
BECMG 2103/2105 18005KT
PROB40
TEMPO 2103/2107 2000 BR OVC003
BECMG 2109/2111 SCT015
BECMG 2111/2113 VRB02KT
BECMG 2114/2116 CAVOK
BECMG 2117/2119 05007KT
PROB40
TEMPO 2122/2124 3000 BR
ATIS : +33 5 55 48 40 37



MET'MAP, la Météo Aéronautique d'un coup d'oeil ! - Copyright ORBIFLY Décembre 2007 - Disclaimer

ORBIFLY MET'MAP TEAM :

Programmation & Développement : Alexandra Zaïnal
Conception & Développement : Baudouin d'Aumeries
Co-Programmation & Développement : Marc-Olivier Méhu
Soutien technique & logistique : Manuel Goepfert

Contact : metmap@orbifly.com




SOURCES & CREDITS :

   NOAA